CYLC

Kimmirut Airport

Kimmirut, Canada
METAR CYLC 151446Z 33010G15KT 15SM FEW020 SCT036 BKN085 BKN400 11/06 A2972 RMK SF2SC2AC1CI1 WSHFT 1430 SLP070
Observed Flight Rules
Aug-15 @ 14:46 UTC (15 minutes ago) Visual Flight Rules
Wind Visibility Clouds
330° at 10 knots
 Gusting to 15 knots
15 miles
  • Few at 2,000' AGL
  • Scattered at 3,600' AGL
  • Broken at 8,500' AGL
  • Broken at 40,000' AGL
Temperatures Readings
Current 11°C / 52°F
Dewpoint 6°C / 43°F
Humidity 72%
Altimeter 29.72" Hg
Pressure 1007 hPa
Elevation 53
METAR CYLC 151446Z 33010G15KT 15SM FEW020 SCT036 BKN085 BKN400 11/06 A2972 RMK SF2SC2AC1CI1 WSHFT 1430 SLP070
Observed Flight Rules
Aug-15 @ 14:46 UTC
(15 minutes ago)
VFR
Wind Visibility
330° at 10 knots
 Gusting to 15 knots
15 miles
Clouds
  • Few at 2,000' AGL
  • Scattered at 3,600' AGL
  • Broken at 8,500' AGL
  • Broken at 40,000' AGL
Temperature Dewpoint
11°C / 52°F 6°C / 43°F
Humidity Altimeter Pressure
72% 29.72" Hg 1007 hPa